Time;durP1;ratioP1;P1;durP2;ratioP2;P2;SDS_P1;SDS_P2;PMS_P1;PMS_P2;Temp;Humidity;BMP_temperature;BMP_pressure;BME280_temperature;BME280_humidity;BME280_pressure;Samples;Min_cycle;Max_cycle;Signal;HPM_P1;HPM_P2
2022/05/19 00:01:22;;;;;;;42.88;9.80;;;;;;;;;;5018564;28;94854;-70
2022/05/19 00:03:48;;;;;;;19.52;9.82;;;;;;;;;;5016638;28;94472;-70
2022/05/19 00:06:15;;;;;;;20.95;10.70;;;;;;;;;;5024214;27;93134;-70
2022/05/19 00:08:41;;;;;;;19.48;10.23;;;;;;;;;;5017836;28;93193;-70
2022/05/19 00:11:09;;;;;;;21.08;9.23;;;;;;;;;;5034244;27;94494;-70
2022/05/19 00:13:36;;;;;;;17.63;9.98;;;;;;;;;;5030573;27;92701;-70
2022/05/19 00:16:02;;;;;;;28.20;10.98;;;;;;;;;;5028832;27;93270;-70
2022/05/19 00:18:29;;;;;;;22.85;12.13;;;;;;;;;;5030325;27;92765;-70
2022/05/19 00:20:55;;;;;;;20.10;10.88;;;;;;;;;;5017514;28;92465;-70
2022/05/19 00:23:21;;;;;;;20.02;10.10;;;;;;;;;;5017241;28;94531;-70
2022/05/19 00:25:47;;;;;;;18.77;10.32;;;;;;;;;;5012258;28;94831;-70
2022/05/19 00:28:14;;;;;;;17.40;11.52;;;;;;;;;;5031418;28;96721;-70
2022/05/19 00:30:41;;;;;;;22.38;10.63;;;;;;;;;;5031943;27;93265;-70
2022/05/19 00:33:08;;;;;;;22.25;11.80;;;;;;;;;;5026106;27;92910;-70
2022/05/19 00:35:36;;;;;;;25.40;11.60;;;;;;;;;;5021659;27;94588;-70
2022/05/19 00:38:02;;;;;;;22.85;12.35;;;;;;;;;;5028786;28;94474;-70
2022/05/19 00:40:29;;;;;;;18.65;11.75;;;;;;;;;;5021518;27;92946;-71
2022/05/19 00:42:55;;;;;;;23.70;12.52;;;;;;;;;;5031953;28;92831;-70
2022/05/19 00:45:26;;;;;;;24.35;11.85;;;;;;;;;;5017627;27;94096;-70
2022/05/19 00:47:56;;;;;;;19.35;11.27;;;;;;;;;;5033646;27;93199;-70
2022/05/19 00:50:27;;;;;;;18.50;12.00;;;;;;;;;;5020163;28;97018;-70
2022/05/19 00:52:57;;;;;;;20.20;10.85;;;;;;;;;;5027836;28;92564;-70
2022/05/19 00:55:36;;;;;;;19.20;10.63;;;;;;;;;;5032282;28;95612;-70
2022/05/19 00:58:06;;;;;;;20.23;10.68;;;;;;;;;;5016890;27;92812;-70
2022/05/19 01:00:33;;;;;;;15.95;10.43;;;;;;;;;;5028662;28;93519;-70
2022/05/19 01:03:00;;;;;;;16.00;9.95;;;;;;;;;;5021291;27;93026;-70
2022/05/19 01:05:30;;;;;;;21.38;9.73;;;;;;;;;;5023604;28;92515;-70
2022/05/19 01:07:59;;;;;;;23.23;10.32;;;;;;;;;;5022661;27;93352;-70
2022/05/19 01:10:26;;;;;;;14.43;9.93;;;;;;;;;;5023902;27;94412;-70
2022/05/19 01:12:53;;;;;;;21.23;10.38;;;;;;;;;;5014591;28;92437;-70
2022/05/19 01:15:19;;;;;;;18.98;10.52;;;;;;;;;;5025391;27;95231;-70
2022/05/19 01:17:46;;;;;;;18.42;10.27;;;;;;;;;;5024449;27;94459;-70
2022/05/19 01:20:13;;;;;;;13.18;9.85;;;;;;;;;;5018658;27;92548;-70
2022/05/19 01:22:51;;;;;;;18.77;11.15;;;;;;;;;;5017126;28;92939;-70
2022/05/19 01:25:32;;;;;;;21.65;11.50;;;;;;;;;;5036435;28;93461;-70
2022/05/19 01:27:59;;;;;;;22.83;12.00;;;;;;;;;;5030575;27;93182;-70
2022/05/19 01:30:25;;;;;;;18.98;11.93;;;;;;;;;;5015170;28;96040;-70
2022/05/19 01:32:57;;;;;;;21.58;12.45;;;;;;;;;;5023239;27;92181;-70
2022/05/19 01:35:23;;;;;;;17.95;12.63;;;;;;;;;;5016580;28;92504;-70
2022/05/19 01:37:49;;;;;;;22.23;13.48;;;;;;;;;;5032660;27;93460;-70
2022/05/19 01:40:18;;;;;;;24.70;12.45;;;;;;;;;;5025655;27;95008;-70
2022/05/19 01:43:04;;;;;;;19.25;12.75;;;;;;;;;;5035574;28;96670;-70
2022/05/19 01:45:40;;;;;;;17.70;13.15;;;;;;;;;;5034806;27;93413;-70
2022/05/19 01:48:09;;;;;;;19.77;13.52;;;;;;;;;;5019510;28;92449;-70
2022/05/19 01:50:38;;;;;;;34.13;14.23;;;;;;;;;;5016004;28;93507;-71
2022/05/19 01:53:04;;;;;;;21.02;13.50;;;;;;;;;;5020094;28;92444;-70
2022/05/19 01:55:49;;;;;;;24.15;13.88;;;;;;;;;;5029308;27;93417;-70
2022/05/19 01:58:18;;;;;;;16.95;11.35;;;;;;;;;;5029579;27;93141;-71
2022/05/19 02:00:45;;;;;;;20.77;11.63;;;;;;;;;;5017916;27;92611;-70
2022/05/19 02:03:18;;;;;;;14.30;10.68;;;;;;;;;;5017787;28;93539;-70
2022/05/19 02:05:48;;;;;;;16.25;10.88;;;;;;;;;;5020417;28;95886;-70
2022/05/19 02:08:22;;;;;;;17.40;11.90;;;;;;;;;;5026184;28;92458;-70
2022/05/19 02:10:54;;;;;;;20.38;11.13;;;;;;;;;;5034458;27;93539;-70
2022/05/19 02:13:21;;;;;;;18.00;10.82;;;;;;;;;;5026260;27;92337;-70
2022/05/19 02:15:49;;;;;;;16.02;10.25;;;;;;;;;;5024805;27;93312;-70
2022/05/19 02:18:16;;;;;;;18.35;10.40;;;;;;;;;;5035669;27;93497;-70
2022/05/19 02:20:43;;;;;;;18.00;10.60;;;;;;;;;;5032041;27;92422;-71
2022/05/19 02:23:11;;;;;;;16.33;10.35;;;;;;;;;;5034638;27;93318;-70
2022/05/19 02:25:45;;;;;;;18.73;10.13;;;;;;;;;;5025281;27;94602;-70
2022/05/19 02:28:24;;;;;;;15.00;8.88;;;;;;;;;;5015647;28;92453;-71
2022/05/19 02:30:50;;;;;;;17.10;10.75;;;;;;;;;;5028226;28;94886;-70
2022/05/19 02:33:17;;;;;;;11.68;8.82;;;;;;;;;;5030673;27;93987;-70
2022/05/19 02:35:44;;;;;;;20.80;9.77;;;;;;;;;;5026109;28;92950;-70
2022/05/19 02:38:11;;;;;;;13.73;10.63;;;;;;;;;;5017441;28;93701;-70
2022/05/19 02:40:38;;;;;;;18.85;10.20;;;;;;;;;;5024285;28;92527;-70
2022/05/19 02:43:05;;;;;;;19.67;10.00;;;;;;;;;;5015225;28;92662;-70
2022/05/19 02:45:31;;;;;;;28.50;10.13;;;;;;;;;;5015126;27;93418;-70
2022/05/19 02:47:58;;;;;;;21.50;10.48;;;;;;;;;;5017777;28;93335;-70
2022/05/19 02:50:24;;;;;;;16.60;9.82;;;;;;;;;;5033804;27;92609;-70
2022/05/19 02:52:51;;;;;;;19.45;10.48;;;;;;;;;;5018288;27;93591;-70
2022/05/19 02:55:17;;;;;;;20.17;9.75;;;;;;;;;;5033051;28;95287;-70
2022/05/19 02:57:44;;;;;;;19.27;11.30;;;;;;;;;;5022555;27;93262;-70
2022/05/19 03:00:12;;;;;;;24.10;13.07;;;;;;;;;;5033989;27;92503;-70
2022/05/19 03:02:39;;;;;;;30.45;16.73;;;;;;;;;;5034116;27;93180;-69
2022/05/19 03:05:06;;;;;;;27.95;17.58;;;;;;;;;;5024430;28;94488;-70
2022/05/19 03:07:32;;;;;;;32.17;18.45;;;;;;;;;;5033225;28;92475;-70
2022/05/19 03:09:58;;;;;;;31.80;16.15;;;;;;;;;;5027164;27;93677;-70
2022/05/19 03:12:24;;;;;;;31.65;16.85;;;;;;;;;;5024855;27;93177;-70
2022/05/19 03:14:50;;;;;;;32.80;19.23;;;;;;;;;;5035323;27;92447;-70
2022/05/19 03:17:17;;;;;;;29.98;19.13;;;;;;;;;;5035066;27;93548;-70
2022/05/19 03:19:43;;;;;;;34.28;19.98;;;;;;;;;;5032184;27;94840;-70
2022/05/19 03:22:09;;;;;;;43.20;22.65;;;;;;;;;;5034908;27;95372;-70
2022/05/19 03:24:36;;;;;;;33.38;18.40;;;;;;;;;;5028961;28;94507;-70
2022/05/19 03:27:03;;;;;;;24.75;13.13;;;;;;;;;;5020156;27;92580;-69
2022/05/19 03:29:29;;;;;;;19.50;11.20;;;;;;;;;;5014230;28;93449;-69
2022/05/19 03:31:55;;;;;;;16.65;8.68;;;;;;;;;;5014435;28;93372;-69
2022/05/19 03:34:21;;;;;;;16.65;7.60;;;;;;;;;;5016177;28;92505;-69
2022/05/19 03:36:49;;;;;;;10.98;5.90;;;;;;;;;;5018538;28;91814;-69
2022/05/19 03:39:15;;;;;;;11.23;4.72;;;;;;;;;;5017028;28;93146;-69
2022/05/19 03:41:41;;;;;;;12.10;4.75;;;;;;;;;;5031163;27;93174;-69
2022/05/19 03:44:08;;;;;;;11.68;4.35;;;;;;;;;;5033505;27;95763;-70
2022/05/19 03:46:34;;;;;;;5.53;3.03;;;;;;;;;;5035692;27;92432;-70
2022/05/19 03:49:00;;;;;;;7.10;2.67;;;;;;;;;;5031050;27;93226;-70
2022/05/19 03:51:29;;;;;;;7.90;2.25;;;;;;;;;;5033648;27;93422;-70
2022/05/19 03:53:55;;;;;;;9.77;2.33;;;;;;;;;;5016287;27;92741;-70
2022/05/19 03:56:23;;;;;;;3.67;1.95;;;;;;;;;;5015316;28;94562;-70
2022/05/19 03:58:50;;;;;;;9.48;1.83;;;;;;;;;;5017332;28;93266;-70
2022/05/19 04:01:17;;;;;;;10.43;2.42;;;;;;;;;;5015737;28;94177;-69
2022/05/19 04:03:43;;;;;;;3.50;1.63;;;;;;;;;;5029986;28;93381;-69
2022/05/19 04:06:10;;;;;;;2.80;1.83;;;;;;;;;;5021702;28;92491;-69
2022/05/19 04:08:36;;;;;;;7.65;1.75;;;;;;;;;;5011620;28;95357;-69
2022/05/19 04:11:03;;;;;;;4.72;1.83;;;;;;;;;;5029854;28;93559;-70
2022/05/19 04:13:29;;;;;;;3.85;1.90;;;;;;;;;;5032553;27;92456;-69
2022/05/19 04:15:56;;;;;;;3.40;2.03;;;;;;;;;;5015851;27;93082;-70
2022/05/19 04:18:22;;;;;;;4.78;2.05;;;;;;;;;;5013854;28;94602;-69
2022/05/19 04:20:49;;;;;;;5.90;2.20;;;;;;;;;;5017763;28;92525;-70
2022/05/19 04:23:16;;;;;;;6.07;2.38;;;;;;;;;;5015798;28;93462;-70
2022/05/19 04:25:43;;;;;;;7.32;2.90;;;;;;;;;;5021991;28;91739;-70
2022/05/19 04:28:09;;;;;;;6.30;2.20;;;;;;;;;;5034825;27;93665;-70
2022/05/19 04:30:36;;;;;;;6.30;2.17;;;;;;;;;;5027554;27;93600;-69
2022/05/19 04:33:03;;;;;;;4.43;2.35;;;;;;;;;;5029052;27;94890;-70
2022/05/19 04:35:30;;;;;;;7.63;3.08;;;;;;;;;;5011752;28;95825;-69
2022/05/19 04:38:00;;;;;;;;;;;;;;;;;;5014654;28;94016;-70
2022/05/19 04:40:27;;;;;;;7.10;2.40;;;;;;;;;;5016910;28;118553;-70
2022/05/19 04:42:53;;;;;;;6.60;2.70;;;;;;;;;;5023775;27;93120;-70
2022/05/19 04:45:20;;;;;;;5.00;2.70;;;;;;;;;;5027938;27;92453;-69
2022/05/19 04:47:47;;;;;;;6.50;2.83;;;;;;;;;;5034062;27;93469;-69
2022/05/19 04:50:13;;;;;;;3.63;2.42;;;;;;;;;;5038248;28;93731;-69
2022/05/19 04:52:40;;;;;;;5.45;2.55;;;;;;;;;;5027475;27;92906;-70
2022/05/19 04:55:07;;;;;;;5.22;2.60;;;;;;;;;;5017905;28;94196;-70
2022/05/19 04:57:34;;;;;;;4.68;2.72;;;;;;;;;;5026810;28;96001;-70
2022/05/19 05:00:01;;;;;;;5.95;3.13;;;;;;;;;;5032565;27;92595;-70
2022/05/19 05:02:27;;;;;;;13.57;3.05;;;;;;;;;;5027443;27;93115;-69
2022/05/19 05:04:53;;;;;;;7.53;3.20;;;;;;;;;;5040301;27;93364;-70
2022/05/19 05:07:20;;;;;;;5.22;2.70;;;;;;;;;;5037662;27;93092;-70
2022/05/19 05:09:46;;;;;;;10.45;3.00;;;;;;;;;;5031766;27;93543;-70
2022/05/19 05:12:13;;;;;;;10.68;3.17;;;;;;;;;;5032920;28;92486;-70
2022/05/19 05:14:39;;;;;;;8.95;3.30;;;;;;;;;;5017733;27;93239;-70
2022/05/19 05:17:11;;;;;;;9.95;3.28;;;;;;;;;;5026520;27;94626;-70
2022/05/19 05:19:37;;;;;;;9.63;3.80;;;;;;;;;;5016890;28;92738;-70
2022/05/19 05:22:04;;;;;;;10.88;3.40;;;;;;;;;;5013752;28;95187;-70
2022/05/19 05:24:32;;;;;;;14.10;4.38;;;;;;;;;;5025595;28;93515;-70
2022/05/19 05:26:58;;;;;;;12.63;3.85;;;;;;;;;;5019735;28;93206;-69
2022/05/19 05:29:24;;;;;;;6.88;3.22;;;;;;;;;;5021031;28;93438;-70
2022/05/19 05:31:50;;;;;;;11.35;4.18;;;;;;;;;;5018262;27;93296;-70
2022/05/19 05:34:17;;;;;;;10.60;3.33;;;;;;;;;;5016061;28;93264;-70
2022/05/19 05:36:43;;;;;;;8.30;3.08;;;;;;;;;;5020939;28;93417;-70
2022/05/19 05:39:10;;;;;;;14.10;3.75;;;;;;;;;;5037587;27;91717;-69
2022/05/19 05:41:36;;;;;;;12.20;3.33;;;;;;;;;;5037080;27;92396;-70
2022/05/19 05:44:02;;;;;;;8.05;3.72;;;;;;;;;;5029070;27;93437;-69
2022/05/19 05:46:29;;;;;;;6.05;3.50;;;;;;;;;;5024872;27;96412;-69
2022/05/19 05:48:55;;;;;;;6.35;3.00;;;;;;;;;;5016532;28;94369;-69
2022/05/19 05:51:21;;;;;;;6.50;3.25;;;;;;;;;;5016740;28;92433;-69
2022/05/19 05:53:48;;;;;;;4.55;2.72;;;;;;;;;;5015468;28;93236;-70
2022/05/19 05:56:15;;;;;;;9.52;4.18;;;;;;;;;;5036272;27;94267;-70
2022/05/19 05:58:42;;;;;;;11.50;2.95;;;;;;;;;;5029102;27;92765;-69
2022/05/19 06:01:09;;;;;;;3.67;2.50;;;;;;;;;;5015274;28;93248;-69
2022/05/19 06:03:36;;;;;;;4.70;2.90;;;;;;;;;;5016230;28;91972;-69
2022/05/19 06:06:03;;;;;;;4.72;2.70;;;;;;;;;;5016651;28;92646;-69
2022/05/19 06:08:29;;;;;;;5.22;2.92;;;;;;;;;;5019650;28;94038;-69
2022/05/19 06:10:56;;;;;;;6.93;3.28;;;;;;;;;;5014492;28;94792;-69
2022/05/19 06:13:24;;;;;;;4.53;2.80;;;;;;;;;;5017472;28;95278;-69
2022/05/19 06:15:50;;;;;;;4.65;2.75;;;;;;;;;;5031955;27;93579;-70
2022/05/19 06:18:16;;;;;;;4.85;2.70;;;;;;;;;;5030627;27;92435;-69
2022/05/19 06:20:42;;;;;;;5.32;2.65;;;;;;;;;;5016172;28;92992;-69
2022/05/19 06:23:09;;;;;;;9.85;3.20;;;;;;;;;;5016266;28;93182;-69
2022/05/19 06:25:42;;;;;;;3.50;2.88;;;;;;;;;;5015467;27;93414;-70
2022/05/19 06:28:08;;;;;;;6.93;3.33;;;;;;;;;;5024286;27;93222;-70
2022/05/19 06:30:34;;;;;;;5.45;3.13;;;;;;;;;;5037545;27;93445;-70
2022/05/19 06:33:01;;;;;;;9.90;3.45;;;;;;;;;;5034553;27;93118;-71
2022/05/19 06:35:29;;;;;;;13.63;3.75;;;;;;;;;;5018313;28;95468;-71
2022/05/19 06:37:55;;;;;;;6.10;3.28;;;;;;;;;;5013679;28;93550;-69
2022/05/19 06:40:24;;;;;;;6.22;3.60;;;;;;;;;;5021195;28;92514;-70
2022/05/19 06:42:50;;;;;;;9.95;3.95;;;;;;;;;;5036077;27;93512;-70
2022/05/19 06:45:18;;;;;;;12.15;3.97;;;;;;;;;;5035747;27;92500;-69
2022/05/19 06:47:44;;;;;;;7.72;4.13;;;;;;;;;;5032844;27;93158;-70
2022/05/19 06:50:11;;;;;;;9.65;3.97;;;;;;;;;;5015552;28;93147;-70
2022/05/19 06:52:42;;;;;;;9.57;4.10;;;;;;;;;;5018757;28;91747;-71
2022/05/19 06:55:08;;;;;;;21.20;5.30;;;;;;;;;;5031976;28;93415;-70
2022/05/19 06:57:35;;;;;;;9.95;4.75;;;;;;;;;;5036228;27;92649;-69
2022/05/19 07:00:03;;;;;;;10.15;4.40;;;;;;;;;;5021237;27;94850;-71
2022/05/19 07:02:30;;;;;;;9.63;4.25;;;;;;;;;;5032422;28;93587;-71
2022/05/19 07:04:56;;;;;;;6.75;3.95;;;;;;;;;;5031685;27;92439;-70
2022/05/19 07:07:23;;;;;;;8.07;3.63;;;;;;;;;;5031307;28;92971;-70
2022/05/19 07:09:50;;;;;;;8.45;4.55;;;;;;;;;;5019431;27;93191;-71
2022/05/19 07:12:22;;;;;;;9.35;3.90;;;;;;;;;;5035134;27;92493;-71
2022/05/19 07:14:50;;;;;;;18.23;4.45;;;;;;;;;;5035379;27;93053;-71
2022/05/19 07:17:17;;;;;;;8.68;3.60;;;;;;;;;;5026400;27;91859;-70
2022/05/19 07:22:29;;;;;;;7.47;3.72;;;;;;;;;;5025570;28;93639;-70
2022/05/19 07:24:56;;;;;;;4.30;3.30;;;;;;;;;;5013270;28;95206;-70
2022/05/19 07:27:22;;;;;;;5.97;3.70;;;;;;;;;;5015195;28;95608;-68
2022/05/19 07:29:48;;;;;;;7.07;4.20;;;;;;;;;;5014937;28;93405;-69
2022/05/19 07:32:18;;;;;;;;;;;;;;;;;;5017292;28;93773;-69
2022/05/19 07:34:45;;;;;;;7.32;3.65;;;;;;;;;;5017875;28;123259;-70
2022/05/19 07:37:11;;;;;;;9.82;3.90;;;;;;;;;;5015556;28;92429;-69
2022/05/19 07:39:37;;;;;;;9.48;3.83;;;;;;;;;;5015119;28;93304;-70
2022/05/19 07:42:04;;;;;;;8.60;3.40;;;;;;;;;;5031805;28;93693;-69
2022/05/19 07:44:30;;;;;;;5.13;3.40;;;;;;;;;;5015917;27;92427;-70
2022/05/19 07:46:57;;;;;;;5.97;3.60;;;;;;;;;;5027464;27;93259;-69
2022/05/19 07:49:23;;;;;;;5.05;4.05;;;;;;;;;;5030553;27;95794;-70
2022/05/19 07:51:50;;;;;;;7.78;4.13;;;;;;;;;;5014297;28;92521;-70
2022/05/19 07:54:18;;;;;;;9.90;4.15;;;;;;;;;;5026921;28;93145;-68
2022/05/19 07:56:45;;;;;;;6.50;2.95;;;;;;;;;;5019830;27;93204;-69
2022/05/19 07:59:12;;;;;;;8.75;2.88;;;;;;;;;;5014493;28;93079;-70
2022/05/19 08:01:39;;;;;;;6.38;2.80;;;;;;;;;;5016596;27;93550;-70
2022/05/19 08:04:07;;;;;;;4.47;2.80;;;;;;;;;;5015129;28;92648;-71
2022/05/19 08:06:33;;;;;;;7.28;3.35;;;;;;;;;;5014522;28;92933;-72
2022/05/19 08:09:00;;;;;;;2.80;2.60;;;;;;;;;;5013410;28;93605;-70
2022/05/19 08:11:27;;;;;;;4.70;2.58;;;;;;;;;;5018329;28;93187;-71
2022/05/19 08:16:39;;;;;;;4.75;2.90;;;;;;;;;;5021369;27;94375;-72
2022/05/19 08:19:05;;;;;;;3.35;2.80;;;;;;;;;;5037818;27;92524;-72
2022/05/19 08:21:32;;;;;;;3.10;2.80;;;;;;;;;;5032942;27;93501;-71
2022/05/19 08:23:58;;;;;;;6.53;3.25;;;;;;;;;;5033490;27;92444;-72
2022/05/19 08:26:25;;;;;;;4.43;2.50;;;;;;;;;;5033702;28;92580;-71
2022/05/19 08:28:51;;;;;;;5.95;3.15;;;;;;;;;;5030675;28;94516;-71
2022/05/19 08:31:19;;;;;;;5.38;2.85;;;;;;;;;;5022268;28;91774;-71
2022/05/19 08:33:47;;;;;;;4.25;3.20;;;;;;;;;;5034479;27;92455;-71
2022/05/19 08:36:21;;;;;;;3.50;2.63;;;;;;;;;;5034383;27;93443;-71
2022/05/19 08:38:47;;;;;;;5.68;3.30;;;;;;;;;;5029321;27;94805;-72
2022/05/19 08:41:25;;;;;;;6.55;3.50;;;;;;;;;;5032467;27;95366;-71
2022/05/19 08:43:59;;;;;;;9.93;3.40;;;;;;;;;;5029256;28;93820;-72
2022/05/19 08:46:29;;;;;;;7.15;3.55;;;;;;;;;;5026112;27;92626;-72
2022/05/19 08:48:56;;;;;;;;;;;;;;;;;;5027507;27;94454;-71
2022/05/19 08:51:24;;;;;;;5.03;3.22;;;;;;;;;;5014850;28;117879;-71
2022/05/19 08:53:54;;;;;;;6.28;3.15;;;;;;;;;;5014236;28;93394;-71
2022/05/19 08:56:27;;;;;;;4.65;3.03;;;;;;;;;;5015338;28;95319;-72
2022/05/19 08:59:09;;;;;;;5.82;3.17;;;;;;;;;;5014796;28;92782;-72
2022/05/19 09:01:45;;;;;;;4.82;3.22;;;;;;;;;;5020744;28;92330;-72
2022/05/19 09:04:11;;;;;;;4.70;3.58;;;;;;;;;;5012948;28;96924;-71
2022/05/19 09:07:56;;;;;;;8.82;4.07;;;;;;;;;;5013903;28;96708;-72
2022/05/19 09:09:42;;;;;;;9.27;3.90;;;;;;;;;;5016080;28;94537;-72
2022/05/19 09:12:10;;;;;;;4.75;3.47;;;;;;;;;;5031336;28;92476;-72
2022/05/19 09:14:37;;;;;;;5.75;3.40;;;;;;;;;;5014125;28;93149;-70
2022/05/19 09:17:07;;;;;;;4.72;3.88;;;;;;;;;;5025284;27;93208;-71
2022/05/19 09:19:38;;;;;;;5.82;3.88;;;;;;;;;;5022279;28;92637;-72
2022/05/19 09:22:12;;;;;;;4.05;3.65;;;;;;;;;;5028867;27;93018;-71
2022/05/19 09:24:45;;;;;;;7.10;3.03;;;;;;;;;;5033989;27;93271;-71
2022/05/19 09:27:11;;;;;;;7.30;4.32;;;;;;;;;;5022133;27;92521;-71
2022/05/19 09:29:40;;;;;;;6.82;4.25;;;;;;;;;;5023418;28;95030;-71
2022/05/19 09:32:14;;;;;;;7.40;3.83;;;;;;;;;;5033671;27;92523;-72
2022/05/19 09:34:46;;;;;;;5.65;4.50;;;;;;;;;;5035787;27;92785;-72
2022/05/19 09:37:14;;;;;;;14.43;5.28;;;;;;;;;;5029721;27;93494;-71
2022/05/19 09:40:03;;;;;;;9.40;4.40;;;;;;;;;;5032697;28;92415;-72
2022/05/19 09:42:33;;;;;;;4.23;3.83;;;;;;;;;;5013239;28;93246;-72
2022/05/19 09:44:59;;;;;;;5.93;4.13;;;;;;;;;;5018935;27;93689;-72
2022/05/19 09:47:33;;;;;;;12.52;5.75;;;;;;;;;;5038179;27;91674;-71
2022/05/19 09:50:05;;;;;;;6.18;4.93;;;;;;;;;;5035877;27;92377;-72
2022/05/19 09:52:33;;;;;;;12.88;5.60;;;;;;;;;;5036400;27;92458;-71
2022/05/19 09:55:01;;;;;;;21.30;5.90;;;;;;;;;;5033800;27;95356;-71
2022/05/19 09:57:39;;;;;;;9.30;5.70;;;;;;;;;;5031612;27;93429;-71
2022/05/19 10:00:10;;;;;;;8.75;4.28;;;;;;;;;;5037026;27;92367;-71
2022/05/19 10:02:38;;;;;;;6.10;4.90;;;;;;;;;;5017887;27;93220;-71
2022/05/19 10:05:34;;;;;;;10.65;5.80;;;;;;;;;;5020077;28;94902;-71
2022/05/19 10:08:05;;;;;;;7.13;5.55;;;;;;;;;;5037000;27;92456;-71
2022/05/19 10:10:33;;;;;;;5.53;5.03;;;;;;;;;;5033015;27;93125;-71
2022/05/19 10:13:02;;;;;;;6.03;5.32;;;;;;;;;;5021171;28;92139;-72
2022/05/19 10:15:38;;;;;;;11.85;5.82;;;;;;;;;;5024270;27;92614;-71
2022/05/19 10:18:32;;;;;;;13.93;6.25;;;;;;;;;;5031658;28;93653;-71
2022/05/19 10:21:06;;;;;;;6.30;5.38;;;;;;;;;;5031101;28;95224;-71
2022/05/19 10:23:38;;;;;;;10.52;5.78;;;;;;;;;;5034666;27;95222;-71
2022/05/19 10:26:07;;;;;;;8.38;6.22;;;;;;;;;;5030627;27;93433;-69
2022/05/19 10:31:50;;;;;;;8.23;5.95;;;;;;;;;;5015743;28;93222;-71
2022/05/19 10:34:35;;;;;;;12.98;6.80;;;;;;;;;;5036604;28;93295;-70
2022/05/19 10:37:07;;;;;;;7.47;6.45;;;;;;;;;;5031692;28;93088;-70
2022/05/19 10:39:41;;;;;;;9.13;7.10;;;;;;;;;;5016731;28;92471;-71
2022/05/19 10:42:13;;;;;;;17.45;7.13;;;;;;;;;;5023206;27;92870;-70
2022/05/19 10:44:58;;;;;;;6.40;4.40;;;;;;;;;;5036464;27;93981;-70
2022/05/19 10:47:36;;;;;;;15.35;8.00;;;;;;;;;;5016266;28;96066;-70
2022/05/19 10:50:18;;;;;;;15.40;7.72;;;;;;;;;;5032214;28;92394;-70
2022/05/19 10:53:19;;;;;;;8.48;7.00;;;;;;;;;;5025698;27;93135;-70
2022/05/19 10:55:45;;;;;;;10.25;8.13;;;;;;;;;;4953715;28;93412;-71
2022/05/19 10:58:38;;;;;;;12.68;8.10;;;;;;;;;;4967527;28;92559;-70
2022/05/19 11:01:13;;;;;;;10.00;8.02;;;;;;;;;;4953477;28;93185;-70
2022/05/19 11:03:50;;;;;;;11.82;8.93;;;;;;;;;;4966778;28;92666;-70
2022/05/19 11:06:28;;;;;;;11.30;8.63;;;;;;;;;;4954560;28;93284;-70
2022/05/19 11:09:15;;;;;;;12.55;8.95;;;;;;;;;;4967693;28;93490;-70
2022/05/19 11:12:01;;;;;;;8.45;6.55;;;;;;;;;;4972100;28;92591;-70
2022/05/19 11:14:51;;;;;;;11.80;8.48;;;;;;;;;;4971877;28;94908;-70
2022/05/19 11:17:18;;;;;;;;;;;;;;;;;;4959005;28;93433;-72
2022/05/19 11:19:48;;;;;;;12.23;9.80;;;;;;;;;;4972106;28;118424;-71
2022/05/19 11:22:17;;;;;;;14.13;10.05;;;;;;;;;;4976063;28;93240;-69
2022/05/19 11:27:40;;;;;;;21.38;10.68;;;;;;;;;;4972870;28;94275;-70
2022/05/19 11:30:09;;;;;;;15.50;9.95;;;;;;;;;;4996775;28;94413;-71
2022/05/19 11:32:36;;;;;;;12.23;9.82;;;;;;;;;;5028802;28;91731;-70
2022/05/19 11:35:05;;;;;;;12.27;9.30;;;;;;;;;;5027736;27;93252;-70
2022/05/19 11:37:55;;;;;;;15.35;9.85;;;;;;;;;;5032443;28;93446;-70
2022/05/19 11:40:28;;;;;;;17.25;10.05;;;;;;;;;;5030787;28;94971;-70
2022/05/19 11:43:00;;;;;;;15.30;10.55;;;;;;;;;;5029671;27;95756;-70
2022/05/19 11:45:32;;;;;;;16.80;10.40;;;;;;;;;;5033495;27;92533;-70
2022/05/19 11:56:51;;;;;;;23.05;11.50;;;;;;;;;;5031722;28;94256;-71
2022/05/19 11:59:17;;;;;;;18.77;9.98;;;;;;;;;;5016098;27;92474;-71
2022/05/19 12:01:47;;;;;;;14.85;7.18;;;;;;;;;;5019612;28;92862;-71
2022/05/19 12:04:19;;;;;;;8.18;4.40;;;;;;;;;;5024715;27;93162;-71
2022/05/19 12:06:48;;;;;;;5.05;2.08;;;;;;;;;;5032934;27;95838;-70
2022/05/19 12:09:23;;;;;;;4.78;1.95;;;;;;;;;;5033162;27;96571;-70
2022/05/19 12:12:11;;;;;;;9.02;1.75;;;;;;;;;;5033188;28;94341;-71
2022/05/19 12:14:40;;;;;;;8.70;2.30;;;;;;;;;;5025395;27;92530;-70
2022/05/19 12:17:13;;;;;;;10.25;1.88;;;;;;;;;;5023063;27;93082;-70
2022/05/19 12:19:44;;;;;;;11.27;2.40;;;;;;;;;;5014470;28;93243;-70
2022/05/19 12:22:10;;;;;;;5.10;1.98;;;;;;;;;;5014354;28;92447;-71
2022/05/19 12:24:50;;;;;;;7.40;2.90;;;;;;;;;;5021794;28;94181;-70
2022/05/19 12:27:20;;;;;;;5.15;2.80;;;;;;;;;;5014158;28;93582;-70
2022/05/19 12:31:56;;;;;;;8.73;3.35;;;;;;;;;;5028856;28;92404;-70
2022/05/19 12:33:10;;;;;;;6.35;3.70;;;;;;;;;;5012122;28;96892;-70
2022/05/19 12:35:43;;;;;;;10.23;3.80;;;;;;;;;;5021409;28;92731;-70
2022/05/19 12:38:27;;;;;;;5.82;3.70;;;;;;;;;;5033774;27;93189;-70
2022/05/19 12:40:58;;;;;;;7.45;4.18;;;;;;;;;;5033886;28;94491;-70
2022/05/19 12:43:27;;;;;;;8.43;4.40;;;;;;;;;;5025123;27;92509;-71
2022/05/19 12:45:59;;;;;;;14.05;5.10;;;;;;;;;;5015619;27;94150;-71
2022/05/19 12:48:31;;;;;;;15.65;5.97;;;;;;;;;;5014930;28;94446;-71
2022/05/19 12:51:12;;;;;;;12.02;5.72;;;;;;;;;;5022405;28;91725;-70
2022/05/19 12:53:41;;;;;;;9.93;5.35;;;;;;;;;;5036831;27;92462;-70
2022/05/19 12:56:08;;;;;;;13.43;4.72;;;;;;;;;;5032874;27;92649;-71
2022/05/19 12:58:37;;;;;;;9.43;4.47;;;;;;;;;;5029715;27;94872;-70
2022/05/19 13:01:08;;;;;;;17.60;5.17;;;;;;;;;;5026062;27;93271;-71
2022/05/19 13:03:37;;;;;;;16.15;5.18;;;;;;;;;;5013680;28;92473;-71
2022/05/19 13:06:05;;;;;;;11.30;5.07;;;;;;;;;;5014559;28;92899;-71
2022/05/19 13:08:37;;;;;;;13.48;6.25;;;;;;;;;;5026321;27;93503;-71
2022/05/19 13:11:09;;;;;;;9.32;5.78;;;;;;;;;;5037364;27;92434;-70
2022/05/19 13:13:40;;;;;;;17.35;6.55;;;;;;;;;;5017538;28;92867;-70
2022/05/19 13:16:11;;;;;;;9.88;6.13;;;;;;;;;;5032455;27;93776;-70
2022/05/19 13:18:40;;;;;;;14.98;6.03;;;;;;;;;;5023578;27;92950;-70
2022/05/19 13:21:09;;;;;;;9.70;6.07;;;;;;;;;;5017145;28;93409;-70
2022/05/19 13:23:37;;;;;;;11.57;6.28;;;;;;;;;;5015731;28;94819;-72
2022/05/19 13:26:08;;;;;;;11.73;6.88;;;;;;;;;;5017159;28;96900;-70
2022/05/19 13:31:20;;;;;;;12.85;5.97;;;;;;;;;;5019736;28;92365;-70
2022/05/19 13:33:48;;;;;;;12.23;5.78;;;;;;;;;;5022132;27;94402;-71
2022/05/19 13:36:15;;;;;;;12.45;6.80;;;;;;;;;;5023362;27;93223;-69
2022/05/19 13:38:41;;;;;;;14.13;6.55;;;;;;;;;;5029526;27;93673;-70
2022/05/19 13:41:09;;;;;;;11.80;6.50;;;;;;;;;;5024431;27;92259;-70
2022/05/19 13:43:39;;;;;;;11.30;6.20;;;;;;;;;;5032477;28;92436;-69
2022/05/19 13:46:09;;;;;;;9.80;5.80;;;;;;;;;;5033782;27;93979;-70
2022/05/19 13:48:45;;;;;;;15.55;6.50;;;;;;;;;;5020239;28;95814;-71
2022/05/19 13:51:47;;;;;;;10.18;6.32;;;;;;;;;;5037212;27;92500;-70
2022/05/19 13:54:26;;;;;;;12.45;6.32;;;;;;;;;;4952144;28;94230;-69
2022/05/19 13:56:57;;;;;;;9.27;5.82;;;;;;;;;;4960030;28;93623;-69
2022/05/19 13:59:28;;;;;;;12.88;5.38;;;;;;;;;;4969660;28;93581;-70
2022/05/19 14:01:58;;;;;;;8.63;5.28;;;;;;;;;;4974056;28;93493;-69
2022/05/19 14:04:26;;;;;;;12.32;5.65;;;;;;;;;;4961107;28;92791;-71
2022/05/19 14:06:52;;;;;;;10.48;5.35;;;;;;;;;;4961441;28;93228;-71
2022/05/19 14:09:26;;;;;;;9.68;5.72;;;;;;;;;;4954271;28;93870;-71
2022/05/19 14:12:11;;;;;;;12.20;6.40;;;;;;;;;;4962641;28;93281;-71
2022/05/19 14:14:37;;;;;;;9.30;5.47;;;;;;;;;;4971710;28;94982;-71
2022/05/19 14:17:11;;;;;;;7.65;5.10;;;;;;;;;;4973481;28;93467;-71
2022/05/19 14:19:37;;;;;;;10.80;5.57;;;;;;;;;;4972887;28;92417;-70
2022/05/19 14:22:04;;;;;;;11.15;5.88;;;;;;;;;;4975463;28;94395;-71
2022/05/19 14:24:30;;;;;;;18.80;5.30;;;;;;;;;;4974022;28;92571;-71
2022/05/19 14:26:59;;;;;;;7.65;5.07;;;;;;;;;;4969102;28;94204;-71
2022/05/19 14:29:33;;;;;;;12.75;5.68;;;;;;;;;;5013528;28;93439;-72
2022/05/19 14:32:19;;;;;;;7.88;5.15;;;;;;;;;;5016795;28;91739;-72
2022/05/19 14:34:46;;;;;;;8.32;4.25;;;;;;;;;;5017606;28;93635;-71
2022/05/19 14:37:16;;;;;;;6.88;4.35;;;;;;;;;;5036170;27;93215;-71
2022/05/19 14:43:03;;;;;;;6.65;4.63;;;;;;;;;;5032662;27;94830;-72
2022/05/19 14:43:06;;;;;;;7.10;4.60;;;;;;;;;;5016305;28;95573;-72
2022/05/19 14:45:34;;;;;;;10.77;4.93;;;;;;;;;;5025543;27;93547;-71
2022/05/19 14:48:01;;;;;;;10.07;4.20;;;;;;;;;;5031978;28;93338;-71
2022/05/19 14:50:30;;;;;;;7.97;4.60;;;;;;;;;;5035712;27;93499;-72
2022/05/19 14:52:59;;;;;;;6.80;4.40;;;;;;;;;;5022198;27;92486;-71
2022/05/19 14:55:45;;;;;;;8.90;3.92;;;;;;;;;;5018997;27;93157;-72
2022/05/19 14:58:17;;;;;;;6.05;3.67;;;;;;;;;;5032972;27;93369;-72
2022/05/19 15:00:44;;;;;;;8.48;4.22;;;;;;;;;;5034740;27;92470;-72
2022/05/19 15:03:10;;;;;;;6.07;4.03;;;;;;;;;;5033981;27;93249;-73
2022/05/19 15:05:38;;;;;;;7.65;4.28;;;;;;;;;;5013262;28;96557;-71
2022/05/19 15:08:06;;;;;;;5.97;3.90;;;;;;;;;;5018719;28;92354;-72
2022/05/19 15:10:33;;;;;;;11.77;4.65;;;;;;;;;;5014498;28;96125;-71
2022/05/19 15:13:01;;;;;;;5.07;3.60;;;;;;;;;;5014710;28;92431;-71
2022/05/19 15:15:28;;;;;;;8.32;3.45;;;;;;;;;;5028781;27;93125;-71